createdAt,value
2019-05-15T00:00:09.332Z,0.6
2019-05-15T00:01:00.229Z,0.6
2019-05-15T00:01:51.099Z,0.5
2019-05-15T00:02:41.975Z,0.4
2019-05-15T00:03:32.850Z,0.4
2019-05-15T00:04:23.718Z,0.4
2019-05-15T00:05:14.587Z,0.4
2019-05-15T00:06:05.488Z,0.5
2019-05-15T00:06:58.221Z,0.4
2019-05-15T00:07:49.249Z,0.4
2019-05-15T00:08:40.120Z,0.4
2019-05-15T00:09:31.012Z,0.4
2019-05-15T00:10:21.889Z,0.4
2019-05-15T00:11:12.784Z,0.4
2019-05-15T00:12:03.656Z,0.4
2019-05-15T00:12:54.534Z,0.4
2019-05-15T00:13:45.402Z,0.4
2019-05-15T00:14:38.702Z,0.3
2019-05-15T00:15:29.737Z,0.3
2019-05-15T00:16:20.644Z,0.3
2019-05-15T00:17:11.536Z,0.3
2019-05-15T00:18:02.420Z,0.3
2019-05-15T00:18:53.294Z,0.3
2019-05-15T00:19:44.170Z,0.2
2019-05-15T00:20:35.044Z,0.1
2019-05-15T00:21:25.941Z,0.1
2019-05-15T00:22:18.303Z,0.1
2019-05-15T00:23:09.336Z,0.2
2019-05-15T00:24:00.211Z,0.1
2019-05-15T00:24:51.087Z,0.1
2019-05-15T00:25:41.961Z,0.1
2019-05-15T00:26:32.862Z,0.1
2019-05-15T00:27:23.727Z,0.1
2019-05-15T00:28:14.599Z,0.1
2019-05-15T00:29:12.568Z,0.1
2019-05-15T00:30:01.279Z,0.1
2019-05-15T00:30:52.154Z,0.1
2019-05-15T00:31:43.052Z,0.1
2019-05-15T00:32:33.922Z,0.1
2019-05-15T00:33:24.795Z,0.1
2019-05-15T00:34:15.664Z,0.1
2019-05-15T00:35:09.085Z,0.1
2019-05-15T00:36:00.193Z,0.1
2019-05-15T00:36:51.094Z,0.1
2019-05-15T00:37:41.968Z,0.1
2019-05-15T00:38:32.841Z,0
2019-05-15T00:39:23.725Z,0
2019-05-15T00:40:14.598Z,0
2019-05-15T00:41:05.469Z,0
2019-05-15T00:41:58.844Z,-0.1
2019-05-15T00:42:49.898Z,-0.1
2019-05-15T00:43:40.765Z,-0.1
2019-05-15T00:44:31.640Z,-0.1
2019-05-15T00:45:22.515Z,-0.2
2019-05-15T00:46:13.384Z,-0.2
2019-05-15T00:47:04.293Z,-0.3
2019-05-15T00:47:55.159Z,-0.3
2019-05-15T00:48:48.531Z,-0.3
2019-05-15T00:49:39.596Z,-0.3
2019-05-15T00:50:30.480Z,-0.3
2019-05-15T00:51:21.350Z,-0.3
2019-05-15T00:52:12.426Z,-0.3
2019-05-15T00:53:03.322Z,-0.3
2019-05-15T00:53:54.192Z,-0.3
2019-05-15T00:54:45.064Z,-0.3
2019-05-15T00:55:37.854Z,-0.3
2019-05-15T00:56:28.880Z,-0.2
2019-05-15T00:57:19.802Z,-0.3
2019-05-15T00:58:10.667Z,-0.3
2019-05-15T00:59:01.539Z,-0.3
2019-05-15T00:59:52.428Z,-0.3
2019-05-15T01:00:43.305Z,-0.3
2019-05-15T01:01:34.180Z,-0.3
2019-05-15T01:02:25.045Z,-0.3
2019-05-15T01:03:18.043Z,-0.3
2019-05-15T01:04:09.087Z,-0.3
2019-05-15T01:04:59.962Z,-0.3
2019-05-15T01:05:50.829Z,-0.3
2019-05-15T01:06:41.698Z,-0.3
2019-05-15T01:07:32.572Z,-0.3
2019-05-15T01:08:23.466Z,-0.4
2019-05-15T01:09:14.336Z,-0.4
2019-05-15T01:10:05.210Z,-0.4
2019-05-15T01:10:58.053Z,-0.5
2019-05-15T01:11:49.076Z,-0.5
2019-05-15T01:12:39.956Z,-0.5
2019-05-15T01:13:30.866Z,-0.6
2019-05-15T01:14:21.731Z,-0.5
2019-05-15T01:15:12.610Z,-0.5
2019-05-15T01:16:03.478Z,-0.6
2019-05-15T01:16:54.365Z,-0.5
2019-05-15T01:17:45.276Z,-0.5
2019-05-15T01:18:38.276Z,-0.5
2019-05-15T01:19:29.343Z,-0.4
2019-05-15T01:20:21.231Z,-0.4
2019-05-15T01:21:12.102Z,-0.4
2019-05-15T01:22:02.976Z,-0.4
2019-05-15T01:22:53.900Z,-0.5
2019-05-15T01:23:44.793Z,-0.6
2019-05-15T01:24:35.659Z,-0.7
2019-05-15T01:25:28.005Z,-0.7
2019-05-15T01:26:19.072Z,-0.8
2019-05-15T01:27:09.968Z,-0.8
2019-05-15T01:28:00.878Z,-0.8
2019-05-15T01:28:51.746Z,-0.9
2019-05-15T01:29:45.075Z,-0.9
2019-05-15T01:30:36.131Z,-0.8
2019-05-15T01:31:28.485Z,-0.8
2019-05-15T01:32:19.509Z,-0.8
2019-05-15T01:33:10.404Z,-0.8
2019-05-15T01:34:01.291Z,-0.8
2019-05-15T01:34:52.160Z,-0.8
2019-05-15T01:35:43.043Z,-0.8
2019-05-15T01:36:33.930Z,-0.8
2019-05-15T01:37:24.812Z,-0.8
2019-05-15T01:38:15.733Z,-0.9
2019-05-15T01:39:07.964Z,-0.8
2019-05-15T01:39:58.991Z,-0.8
2019-05-15T01:40:49.859Z,-0.8
2019-05-15T01:41:40.735Z,-0.8
2019-05-15T01:42:31.608Z,-0.8
2019-05-15T01:43:22.519Z,-0.8
2019-05-15T01:44:13.401Z,-0.8
2019-05-15T01:45:04.278Z,-0.9
2019-05-15T01:45:55.149Z,-0.9
2019-05-15T01:46:48.099Z,-0.9
2019-05-15T01:47:39.246Z,-0.9
2019-05-15T01:48:30.152Z,-0.8
2019-05-15T01:49:21.039Z,-0.8
2019-05-15T01:50:11.905Z,-0.8
2019-05-15T01:51:02.791Z,-0.8
2019-05-15T01:51:53.668Z,-0.9
2019-05-15T01:52:44.541Z,-0.9
2019-05-15T01:53:35.446Z,-0.9
2019-05-15T01:54:28.670Z,-0.9
2019-05-15T01:55:19.712Z,-0.9
2019-05-15T01:56:10.592Z,-0.9
2019-05-15T01:57:01.473Z,-0.9
2019-05-15T01:57:52.341Z,-0.9
2019-05-15T01:58:43.257Z,-0.9
2019-05-15T01:59:34.134Z,-0.9
2019-05-15T02:00:24.996Z,-0.8
2019-05-15T02:01:15.868Z,-0.8
2019-05-15T02:02:06.740Z,-0.8
2019-05-15T02:02:58.718Z,-0.9
2019-05-15T02:03:49.707Z,-0.9
2019-05-15T02:04:40.589Z,-0.9
2019-05-15T02:05:31.460Z,-0.9
2019-05-15T02:06:22.332Z,-0.9
2019-05-15T02:07:13.206Z,-0.9
2019-05-15T02:08:04.079Z,-0.9
2019-05-15T02:08:54.985Z,-0.9
2019-05-15T02:09:45.854Z,-0.9
2019-05-15T02:10:39.047Z,-1
2019-05-15T02:11:30.096Z,-1
2019-05-15T02:12:20.970Z,-1
2019-05-15T02:13:11.848Z,-1.1
2019-05-15T02:14:02.752Z,-1.1
2019-05-15T02:14:53.631Z,-1.2
2019-05-15T02:15:44.506Z,-1.3
2019-05-15T02:16:40.378Z,-1.3
2019-05-15T02:17:31.258Z,-1.3
2019-05-15T02:18:22.136Z,-1.3
2019-05-15T02:19:13.040Z,-1.3
2019-05-15T02:20:03.916Z,-1.2
2019-05-15T02:20:54.804Z,-1.2
2019-05-15T02:21:45.677Z,-1.1
2019-05-15T02:22:41.876Z,-1.1
2019-05-15T02:23:32.360Z,-1.1
2019-05-15T02:24:23.501Z,-1.1
2019-05-15T02:25:14.377Z,-1.1
2019-05-15T02:26:05.246Z,-1.1
2019-05-15T02:26:56.129Z,-1.1
2019-05-15T02:27:48.001Z,-1.1
2019-05-15T02:28:38.974Z,-1.1
2019-05-15T02:29:29.876Z,-1.2
2019-05-15T02:30:28.194Z,-1.2
2019-05-15T02:31:19.451Z,-1.2
2019-05-15T02:32:10.676Z,-1.3
2019-05-15T02:33:01.554Z,-1.3
2019-05-15T02:33:52.423Z,-1.3
2019-05-15T02:34:43.326Z,-1.3
2019-05-15T02:35:34.205Z,-1.3
2019-05-15T02:36:25.073Z,-1.4
2019-05-15T02:37:15.944Z,-1.4
2019-05-15T02:38:09.716Z,-1.4
2019-05-15T02:39:02.180Z,-1.3
2019-05-15T02:39:53.085Z,-1.4
2019-05-15T02:40:43.965Z,-1.4
2019-05-15T02:41:34.845Z,-1.4
2019-05-15T02:42:28.708Z,-1.4
2019-05-15T02:43:19.866Z,-1.5
2019-05-15T02:44:11.105Z,-1.5
2019-05-15T02:45:02.061Z,-1.5
2019-05-15T02:45:52.961Z,-1.5
2019-05-15T02:46:43.833Z,-1.6
2019-05-15T02:47:34.704Z,-1.6
2019-05-15T02:48:28.684Z,-1.6
2019-05-15T02:49:19.731Z,-1.6
2019-05-15T02:50:11.255Z,-1.5
2019-05-15T02:51:02.294Z,-1.5
2019-05-15T02:51:53.170Z,-1.6
2019-05-15T02:52:45.387Z,-1.6
2019-05-15T02:53:39.508Z,-1.6
2019-05-15T02:54:30.712Z,-1.6
2019-05-15T02:55:21.609Z,-1.6
2019-05-15T02:56:12.489Z,-1.6
2019-05-15T02:57:03.360Z,-1.6
2019-05-15T02:57:54.245Z,-1.5
2019-05-15T02:58:45.114Z,-1.5
2019-05-15T02:59:39.305Z,-1.4
2019-05-15T03:00:41.453Z,-1.4
2019-05-15T03:01:28.512Z,-1.4
2019-05-15T03:02:19.495Z,-1.4
2019-05-15T03:03:10.374Z,-1.4
2019-05-15T03:04:01.251Z,-1.4
2019-05-15T03:04:52.123Z,-1.4
2019-05-15T03:05:43.039Z,-1.4
2019-05-15T03:06:33.917Z,-1.5
2019-05-15T03:07:24.796Z,-1.6
2019-05-15T03:08:19.272Z,-1.6
2019-05-15T03:09:10.372Z,-1.6
2019-05-15T03:10:01.245Z,-1.6
2019-05-15T03:10:52.161Z,-1.7
2019-05-15T03:11:43.048Z,-1.7
2019-05-15T03:12:33.927Z,-1.6
2019-05-15T03:13:24.796Z,-1.6
2019-05-15T03:14:15.672Z,-1.6
2019-05-15T03:15:09.556Z,-1.5
2019-05-15T03:16:00.813Z,-1.5
2019-05-15T03:16:51.682Z,-1.5
2019-05-15T03:17:42.561Z,-1.5
2019-05-15T03:18:33.433Z,-1.5
2019-05-15T03:19:24.308Z,-1.5
2019-05-15T03:20:15.179Z,-1.4
2019-05-15T03:21:09.266Z,-1.4
2019-05-15T03:22:00.396Z,-1.5
2019-05-15T03:22:51.270Z,-1.5
2019-05-15T03:23:42.163Z,-1.5
2019-05-15T03:24:33.042Z,-1.5
2019-05-15T03:25:23.919Z,-1.5
2019-05-15T03:26:14.835Z,-1.5
2019-05-15T03:27:08.937Z,-1.5
2019-05-15T03:27:59.994Z,-1.5
2019-05-15T03:28:50.867Z,-1.5
2019-05-15T03:29:41.741Z,-1.6
2019-05-15T03:31:02.451Z,-1.5
2019-05-15T03:31:43.084Z,-1.5
2019-05-15T03:32:33.939Z,-1.5
2019-05-15T03:33:27.004Z,-1.5
2019-05-15T03:34:22.615Z,-1.4
2019-05-15T03:35:14.856Z,-1.4
2019-05-15T03:36:12.398Z,-1.4
2019-05-15T03:37:03.750Z,-1.4
2019-05-15T03:37:55.067Z,-1.4
2019-05-15T03:38:45.955Z,-1.4
2019-05-15T03:39:39.227Z,-1.3
2019-05-15T03:40:30.277Z,-1.3
2019-05-15T03:41:21.156Z,-1.3
2019-05-15T03:42:12.058Z,-1.2
2019-05-15T03:43:02.929Z,-1.2
2019-05-15T03:43:53.820Z,-1.2
2019-05-15T03:44:44.691Z,-1.1
2019-05-15T03:45:35.574Z,-1.1
2019-05-15T03:46:29.063Z,-1.1
2019-05-15T03:47:20.148Z,-1.1
2019-05-15T03:48:11.021Z,-1.1
2019-05-15T03:49:01.899Z,-1.1
2019-05-15T03:49:52.767Z,-1
2019-05-15T03:50:43.881Z,-0.9
2019-05-15T03:51:34.766Z,-0.9
2019-05-15T03:52:25.667Z,-0.8
2019-05-15T03:53:19.178Z,-0.8
2019-05-15T03:54:10.313Z,-0.8
2019-05-15T03:55:01.190Z,-0.8
2019-05-15T03:55:52.065Z,-0.7
2019-05-15T03:56:43.204Z,-0.7
2019-05-15T03:57:34.123Z,-0.6
2019-05-15T03:58:25.135Z,-0.6
2019-05-15T03:59:19.112Z,-0.5
2019-05-15T04:00:10.469Z,-0.4
2019-05-15T04:01:01.431Z,-0.4
2019-05-15T04:01:52.368Z,-0.4
2019-05-15T04:02:43.252Z,-0.3
2019-05-15T04:03:34.137Z,-0.3
2019-05-15T04:04:25.033Z,-0.2
2019-05-15T04:05:15.921Z,-0.1
2019-05-15T04:06:09.674Z,-0.1
2019-05-15T04:07:00.905Z,0
2019-05-15T04:07:51.801Z,0.1
2019-05-15T04:08:42.695Z,0.1
2019-05-15T04:09:33.607Z,0.1
2019-05-15T04:10:24.501Z,0.1
2019-05-15T04:11:15.395Z,0.2
2019-05-15T04:12:09.164Z,0.2
2019-05-15T04:13:00.573Z,0.3
2019-05-15T04:13:51.468Z,0.3
2019-05-15T04:14:42.335Z,0.3
2019-05-15T04:15:33.248Z,0.4
2019-05-15T04:16:24.163Z,0.4
2019-05-15T04:17:15.178Z,0.5
2019-05-15T04:18:08.897Z,0.6
2019-05-15T04:19:00.075Z,0.6
2019-05-15T04:19:50.955Z,0.7
2019-05-15T04:20:41.843Z,0.7
2019-05-15T04:21:32.721Z,0.8
2019-05-15T04:22:23.643Z,0.8
2019-05-15T04:23:14.554Z,0.9
2019-05-15T04:24:05.460Z,0.9
2019-05-15T04:24:59.175Z,0.9
2019-05-15T04:25:50.226Z,1
2019-05-15T04:26:41.120Z,1.1
2019-05-15T04:27:32.062Z,1.1
2019-05-15T04:28:23.225Z,1.2
2019-05-15T04:29:14.111Z,1.3
2019-05-15T04:30:04.995Z,1.3
2019-05-15T04:30:59.324Z,1.3
2019-05-15T04:32:00.404Z,1.4
2019-05-15T04:32:48.742Z,1.4
2019-05-15T04:33:40.246Z,1.5
2019-05-15T04:34:31.199Z,1.6
2019-05-15T04:35:22.074Z,1.6
2019-05-15T04:36:12.942Z,1.6
2019-05-15T04:37:03.821Z,1.7
2019-05-15T04:37:54.729Z,1.8
2019-05-15T04:38:49.354Z,1.8
2019-05-15T04:39:40.561Z,1.9
2019-05-15T04:40:31.436Z,1.9
2019-05-15T04:41:22.315Z,2
2019-05-15T04:42:13.193Z,2
2019-05-15T04:43:04.107Z,2.1
2019-05-15T04:43:54.979Z,2.1
2019-05-15T04:44:45.851Z,2.2
2019-05-15T04:45:39.148Z,2.2
2019-05-15T04:46:30.229Z,2.3
2019-05-15T04:47:21.181Z,2.4
2019-05-15T04:48:12.125Z,2.4
2019-05-15T04:49:03.001Z,2.5
2019-05-15T04:49:53.874Z,2.6
2019-05-15T04:50:44.755Z,2.6
2019-05-15T04:51:38.772Z,2.7
2019-05-15T04:52:30.564Z,2.7
2019-05-15T04:53:21.728Z,2.7
2019-05-15T04:54:12.609Z,2.8
2019-05-15T04:55:03.485Z,2.9
2019-05-15T04:55:54.359Z,2.9
2019-05-15T04:56:45.236Z,3
2019-05-15T04:57:39.436Z,3.1
2019-05-15T04:58:30.877Z,3.1
2019-05-15T04:59:21.761Z,3.2
2019-05-15T05:00:12.632Z,3.2
2019-05-15T05:01:03.517Z,3.3
2019-05-15T05:02:11.582Z,3.4
2019-05-15T05:02:50.205Z,3.4
2019-05-15T05:03:41.120Z,3.5
2019-05-15T05:04:31.985Z,3.6
2019-05-15T05:05:22.864Z,3.6
2019-05-15T05:06:13.741Z,3.7
2019-05-15T05:07:04.661Z,3.8
2019-05-15T05:07:55.535Z,4.2
2019-05-15T05:08:49.037Z,5.1
2019-05-15T05:09:40.195Z,6.2
2019-05-15T05:10:31.138Z,7.3
2019-05-15T05:11:23.962Z,7.6
2019-05-15T05:12:14.981Z,7.6
2019-05-15T05:13:08.671Z,7.6
2019-05-15T05:13:59.806Z,7.6
2019-05-15T05:14:50.674Z,7.6
2019-05-15T05:15:41.786Z,7.6
2019-05-15T05:16:32.661Z,7.6
2019-05-15T05:17:23.550Z,7.6
2019-05-15T05:18:14.421Z,7.6
2019-05-15T05:19:05.350Z,7.6
2019-05-15T05:19:58.208Z,7.6
2019-05-15T05:20:49.234Z,7.6
2019-05-15T05:21:40.113Z,7.6
2019-05-15T05:22:31.075Z,7.6
2019-05-15T05:23:21.992Z,7.6
2019-05-15T05:24:12.901Z,7.6
2019-05-15T05:25:03.765Z,7.6
2019-05-15T05:25:54.636Z,7.7
2019-05-15T05:26:45.531Z,7.7
2019-05-15T05:27:38.254Z,7.7
2019-05-15T05:28:29.468Z,7.7
2019-05-15T05:29:20.374Z,7.7
2019-05-15T05:30:11.242Z,7.7
2019-05-15T05:31:02.114Z,7.7
2019-05-15T05:31:52.987Z,7.7
2019-05-15T05:32:43.863Z,7.7
2019-05-15T05:33:34.742Z,7.7
2019-05-15T05:34:25.622Z,7.7
2019-05-15T05:35:18.416Z,7.7
2019-05-15T05:36:09.407Z,7.7
2019-05-15T05:37:00.279Z,7.7
2019-05-15T05:37:51.160Z,7.7
2019-05-15T05:38:42.030Z,7.7
2019-05-15T05:39:32.907Z,7.7
2019-05-15T05:40:23.811Z,7.7
2019-05-15T05:41:14.675Z,7.8
2019-05-15T05:42:07.769Z,7.8
2019-05-15T05:42:59.587Z,7.8
2019-05-15T05:43:50.560Z,7.8
2019-05-15T05:44:42.701Z,7.8
2019-05-15T05:45:33.677Z,7.8
2019-05-15T05:46:24.545Z,7.8
2019-05-15T05:47:15.412Z,7.8
2019-05-15T05:48:08.679Z,7.8
2019-05-15T05:48:59.668Z,7.9
2019-05-15T05:49:50.590Z,7.9
2019-05-15T05:50:44.024Z,7.9
2019-05-15T05:51:35.306Z,7.9
2019-05-15T05:52:27.961Z,7.9
2019-05-15T05:53:21.132Z,7.9
2019-05-15T05:54:12.255Z,7.9
2019-05-15T05:55:03.226Z,7.9
2019-05-15T05:55:54.160Z,7.9
2019-05-15T05:56:50.088Z,7.9
2019-05-15T05:57:41.058Z,7.9
2019-05-15T05:58:32.161Z,7.9
2019-05-15T05:59:23.207Z,7.9
2019-05-15T06:00:14.124Z,8
2019-05-15T06:01:05.008Z,8
2019-05-15T06:01:58.744Z,8
2019-05-15T06:02:52.193Z,8
2019-05-15T06:03:43.325Z,8
2019-05-15T06:04:34.193Z,8
2019-05-15T06:05:25.096Z,8.1
2019-05-15T06:06:18.433Z,8.1
2019-05-15T06:07:14.003Z,8.1
2019-05-15T06:08:07.808Z,8.1
2019-05-15T06:08:58.815Z,8.1
2019-05-15T06:09:49.689Z,8.1
2019-05-15T06:10:40.643Z,8.1
2019-05-15T06:11:31.547Z,8.1
2019-05-15T06:12:22.435Z,8.1
2019-05-15T06:13:13.329Z,8.1
2019-05-15T06:14:04.462Z,8.1
2019-05-15T06:14:55.358Z,8.1
2019-05-15T06:15:48.209Z,8.2
2019-05-15T06:16:39.591Z,8.2
2019-05-15T06:17:30.499Z,8.2
2019-05-15T06:18:21.369Z,8.2
2019-05-15T06:19:12.240Z,8.2
2019-05-15T06:20:03.113Z,8.2
2019-05-15T06:20:54.014Z,8.2
2019-05-15T06:21:54.490Z,8.3
2019-05-15T06:22:40.701Z,8.3
2019-05-15T06:23:34.534Z,8.3
2019-05-15T06:24:30.349Z,8.3
2019-05-15T06:25:21.616Z,8.3
2019-05-15T06:26:12.521Z,8.3
2019-05-15T06:27:03.418Z,8.3
2019-05-15T06:27:54.316Z,8.3
2019-05-15T06:28:48.731Z,8.3
2019-05-15T06:29:39.826Z,8.3
2019-05-15T06:30:31.181Z,8.3
2019-05-15T06:31:22.173Z,8.4
2019-05-15T06:56:15.256Z,8.8
2019-05-15T06:57:08.743Z,8.8
2019-05-15T07:23:03.041Z,9.3
2019-05-15T07:23:55.130Z,9.3
2019-05-15T07:24:47.751Z,9.3
2019-05-15T07:25:43.450Z,9.3
2019-05-15T09:05:28.677Z,11
2019-05-15T09:06:22.961Z,11
2019-05-15T09:07:14.293Z,11
2019-05-15T09:08:05.163Z,11.1
2019-05-15T09:08:58.316Z,11.1
2019-05-15T09:09:49.503Z,11.1
2019-05-15T09:10:40.373Z,11.1
2019-05-15T09:11:31.248Z,11.1
2019-05-15T09:12:22.126Z,11.1
2019-05-15T09:13:12.987Z,11.2
2019-05-15T09:14:03.858Z,11.2
2019-05-15T09:14:54.749Z,11.2
2019-05-15T09:15:48.041Z,11.3
2019-05-15T09:16:39.006Z,11.3
2019-05-15T09:17:29.884Z,11.3
2019-05-15T09:18:21.509Z,11.3
2019-05-15T09:19:12.384Z,11.3
2019-05-15T09:20:03.294Z,11.3
2019-05-15T09:20:54.171Z,11.3
2019-05-15T09:21:45.036Z,11.4
2019-05-15T09:22:38.133Z,11.4
2019-05-15T09:23:29.289Z,11.4
2019-05-15T09:24:20.202Z,11.4
2019-05-15T09:25:11.112Z,11.4
2019-05-15T09:26:01.987Z,11.4
2019-05-15T09:26:52.868Z,11.5
2019-05-15T09:27:43.744Z,11.5
2019-05-15T09:28:34.620Z,11.5
2019-05-15T09:29:25.488Z,11.5
2019-05-15T09:30:18.225Z,11.6
2019-05-15T09:31:09.286Z,11.6
2019-05-15T09:32:00.168Z,11.6
2019-05-15T09:32:51.045Z,11.6
2019-05-15T09:33:49.190Z,11.6
2019-05-15T09:34:50.067Z,11.6
2019-05-15T09:35:36.131Z,11.7
2019-05-15T09:36:28.827Z,11.7
2019-05-15T09:37:19.871Z,11.7
2019-05-15T09:38:10.741Z,11.7
2019-05-15T09:39:01.618Z,11.8
2019-05-15T09:39:52.486Z,11.8
2019-05-15T09:40:46.541Z,11.8
2019-05-15T09:41:39.196Z,11.8
2019-05-15T09:42:30.060Z,11.8
2019-05-15T09:43:20.954Z,11.9
2019-05-15T09:44:11.837Z,11.9
2019-05-15T09:45:02.701Z,11.9
2019-05-15T09:45:53.602Z,11.9
2019-05-15T09:46:44.474Z,11.9
2019-05-15T09:47:35.339Z,11.9
2019-05-15T09:48:28.586Z,11.9
2019-05-15T09:49:19.634Z,11.9
2019-05-15T09:50:10.507Z,11.8
2019-05-15T09:51:01.428Z,11.8
2019-05-15T09:51:52.303Z,11.8
2019-05-15T09:52:43.189Z,11.8
2019-05-15T09:53:34.074Z,11.8
2019-05-15T09:54:25.614Z,11.8
2019-05-15T09:55:17.998Z,11.8
2019-05-15T09:56:09.020Z,11.8
2019-05-15T09:56:59.887Z,11.8
2019-05-15T09:57:50.770Z,11.8
2019-05-15T09:58:41.638Z,11.8
2019-05-15T09:59:32.509Z,11.8
2019-05-15T10:00:23.379Z,11.8
2019-05-15T10:01:14.305Z,11.8
2019-05-15T10:02:05.171Z,11.8
2019-05-15T10:02:56.041Z,11.8
2019-05-15T10:03:48.388Z,11.7
2019-05-15T10:04:39.461Z,11.7
2019-05-15T10:05:30.330Z,11.7
2019-05-15T10:06:21.229Z,11.7
2019-05-15T10:07:12.101Z,11.7
2019-05-15T10:08:02.970Z,11.7
2019-05-15T10:08:53.842Z,11.8
2019-05-15T10:09:44.720Z,11.8
2019-05-15T10:10:37.900Z,11.8
2019-05-15T10:11:29.120Z,11.8
2019-05-15T10:12:19.994Z,11.8
2019-05-15T10:13:10.874Z,11.9
2019-05-15T10:14:01.749Z,11.9
2019-05-15T10:14:52.618Z,11.9
2019-05-15T10:15:43.493Z,11.9
2019-05-15T10:16:34.412Z,11.9
2019-05-15T10:17:25.279Z,11.9
2019-05-15T10:18:18.715Z,11.9
2019-05-15T10:19:09.755Z,11.9
2019-05-15T10:20:00.621Z,11.9
2019-05-15T10:20:51.486Z,11.9
2019-05-15T10:21:42.407Z,11.9
2019-05-15T10:22:33.278Z,11.9
2019-05-15T10:23:24.157Z,11.9
2019-05-15T10:24:15.043Z,11.9
2019-05-15T10:25:08.131Z,11.9
2019-05-15T10:25:59.211Z,12
2019-05-15T10:26:50.144Z,12
2019-05-15T10:27:41.012Z,12
2019-05-15T10:28:31.878Z,12.1
2019-05-15T10:29:22.751Z,12.1
2019-05-15T10:30:13.873Z,12.1
2019-05-15T10:31:04.744Z,12.1
2019-05-15T10:31:55.646Z,12.2
2019-05-15T10:32:48.660Z,12.2
2019-05-15T10:33:39.782Z,12.2
2019-05-15T10:34:30.685Z,12.2
2019-05-15T10:35:27.569Z,12.2
2019-05-15T10:36:18.840Z,12.3
2019-05-15T10:37:09.882Z,12.3
2019-05-15T10:38:00.765Z,12.4
2019-05-15T10:38:51.679Z,12.4
2019-05-15T10:39:42.594Z,12.4
2019-05-15T10:40:33.478Z,12.4
2019-05-15T10:41:24.381Z,12.4
2019-05-15T10:42:15.286Z,12.4
2019-05-15T10:43:08.657Z,12.4
2019-05-15T10:44:00.453Z,12.4
2019-05-15T10:44:51.454Z,12.5
2019-05-15T10:45:43.354Z,12.5
2019-05-15T10:46:34.424Z,12.5
2019-05-15T10:47:25.326Z,12.5
2019-05-15T10:48:18.589Z,12.5
2019-05-15T10:49:09.912Z,12.5
2019-05-15T10:50:00.825Z,12.6
2019-05-15T10:50:51.991Z,12.6
2019-05-15T10:51:42.858Z,12.6
2019-05-15T10:52:33.764Z,12.6
2019-05-15T10:53:24.638Z,12.6
2019-05-15T10:54:15.505Z,12.6
2019-05-15T10:55:08.883Z,12.6
2019-05-15T10:56:02.619Z,12.6
2019-05-15T10:56:53.720Z,12.6
2019-05-15T10:57:45.685Z,12.6
2019-05-15T10:58:38.932Z,12.6
2019-05-15T10:59:30.026Z,12.6
2019-05-15T11:00:20.898Z,12.7
2019-05-15T11:01:11.806Z,12.7
2019-05-15T11:02:02.924Z,12.7
2019-05-15T11:02:53.831Z,12.7
2019-05-15T11:03:44.706Z,12.7
2019-05-15T11:04:35.595Z,12.7
2019-05-15T11:05:38.184Z,12.7
2019-05-15T11:06:22.276Z,12.7
2019-05-15T11:07:13.139Z,12.7
2019-05-15T11:08:04.045Z,12.8
2019-05-15T11:08:54.914Z,12.7
2019-05-15T11:09:45.809Z,12.7
2019-05-15T11:10:38.502Z,12.8
2019-05-15T11:11:32.498Z,12.8
2019-05-15T11:12:23.367Z,12.8
2019-05-15T11:13:14.270Z,12.8
2019-05-15T11:14:05.166Z,12.8
2019-05-15T11:14:56.043Z,12.8
2019-05-15T11:15:49.066Z,12.8
2019-05-15T11:16:40.203Z,12.8
2019-05-15T11:17:31.513Z,12.8
2019-05-15T11:18:22.642Z,12.8
2019-05-15T11:19:13.532Z,12.8
2019-05-15T11:20:04.402Z,12.8
2019-05-15T11:20:55.278Z,12.8
2019-05-15T11:21:48.303Z,12.8
2019-05-15T11:22:42.850Z,12.8
2019-05-15T11:23:34.003Z,12.8
2019-05-15T11:24:24.873Z,12.8
2019-05-15T11:25:15.747Z,12.8
2019-05-15T11:26:08.698Z,12.8
2019-05-15T11:26:59.770Z,12.8
2019-05-15T11:27:50.655Z,12.8
2019-05-15T11:28:41.554Z,12.8
2019-05-15T11:29:32.430Z,12.8
2019-05-15T11:30:23.297Z,12.8
2019-05-15T11:31:14.182Z,12.8
2019-05-15T11:32:05.066Z,12.8
2019-05-15T11:32:58.593Z,12.8
2019-05-15T11:33:49.619Z,12.8
2019-05-15T11:34:40.500Z,12.8
2019-05-15T11:35:31.399Z,12.8
2019-05-15T11:36:22.295Z,12.8
2019-05-15T11:37:13.177Z,12.8
2019-05-15T11:38:04.051Z,12.8
2019-05-15T11:38:54.952Z,12.8
2019-05-15T11:39:47.175Z,12.8
2019-05-15T11:40:38.874Z,12.8
2019-05-15T11:41:29.898Z,12.8
2019-05-15T11:42:20.784Z,12.8
2019-05-15T11:43:13.370Z,12.8
2019-05-15T11:44:04.308Z,12.8
2019-05-15T11:44:55.243Z,12.8
2019-05-15T11:45:47.804Z,12.8
2019-05-15T11:46:40.241Z,12.8
2019-05-15T11:47:31.221Z,12.8
2019-05-15T11:48:22.116Z,12.8
2019-05-15T11:49:13.025Z,12.8
2019-05-15T11:50:03.910Z,12.8
2019-05-15T11:50:54.792Z,12.8
2019-05-15T11:51:45.666Z,12.8
2019-05-15T11:52:40.050Z,12.8
2019-05-15T11:53:31.162Z,12.8
2019-05-15T11:54:22.058Z,12.8
2019-05-15T11:55:12.929Z,12.8
2019-05-15T11:56:03.825Z,12.8
2019-05-15T11:56:54.705Z,12.8
2019-05-15T11:57:47.401Z,12.8
2019-05-15T11:58:39.512Z,12.8
2019-05-15T11:59:30.418Z,12.8
2019-05-15T12:00:26.696Z,12.8
2019-05-15T12:01:18.985Z,12.8
2019-05-15T12:02:10.404Z,12.8
2019-05-15T12:03:01.275Z,12.8
2019-05-15T12:03:52.215Z,12.8
2019-05-15T12:04:43.203Z,12.8
2019-05-15T12:05:34.084Z,12.8
2019-05-15T12:06:24.956Z,12.8
2019-05-15T12:07:17.641Z,12.8
2019-05-15T12:08:12.135Z,12.8
2019-05-15T12:09:03.377Z,12.8
2019-05-15T12:09:54.289Z,12.8
2019-05-15T12:10:45.181Z,12.8
2019-05-15T12:11:37.813Z,12.8
2019-05-15T12:12:32.015Z,12.8
2019-05-15T12:13:23.011Z,12.8
2019-05-15T12:14:13.911Z,12.8
2019-05-15T12:15:04.784Z,12.8
2019-05-15T12:15:55.663Z,12.8
2019-05-15T12:17:02.156Z,12.8
2019-05-15T12:17:42.347Z,12.8
2019-05-15T12:18:33.217Z,12.8
2019-05-15T12:19:24.118Z,12.8
2019-05-15T12:20:14.985Z,12.8
2019-05-15T12:21:05.850Z,12.8
2019-05-15T12:21:59.587Z,12.8
2019-05-15T12:22:50.668Z,12.8
2019-05-15T12:23:41.546Z,12.8
2019-05-15T12:24:36.463Z,12.8
2019-05-15T12:25:30.999Z,12.8
2019-05-15T12:26:22.471Z,12.8
2019-05-15T12:27:17.923Z,12.8
2019-05-15T12:28:09.404Z,12.8
2019-05-15T12:29:00.640Z,12.8
2019-05-15T12:29:51.542Z,12.8
2019-05-15T12:30:42.418Z,12.8
2019-05-15T12:31:33.292Z,12.8
2019-05-15T12:32:31.402Z,12.8
2019-05-15T12:33:19.980Z,12.8
2019-05-15T12:34:10.888Z,12.8
2019-05-15T12:35:01.828Z,12.8
2019-05-15T12:35:52.713Z,12.8
2019-05-15T12:36:51.609Z,12.8
2019-05-15T12:37:40.207Z,12.8
2019-05-15T12:38:35.198Z,12.8
2019-05-15T12:39:29.558Z,12.8
2019-05-15T12:59:53.380Z,12.8
2019-05-15T13:00:44.279Z,12.8
2019-05-15T13:01:35.144Z,12.9
2019-05-15T13:02:28.038Z,12.8
2019-05-15T13:03:19.034Z,12.9
2019-05-15T13:04:09.901Z,12.9
2019-05-15T13:05:00.803Z,12.9
2019-05-15T13:05:51.698Z,12.9
2019-05-15T13:06:49.052Z,12.9
2019-05-15T13:07:38.416Z,12.9
2019-05-15T13:08:29.325Z,12.9
2019-05-15T13:09:20.198Z,12.9
2019-05-15T13:10:11.128Z,12.9
2019-05-15T13:11:02.091Z,12.8
2019-05-15T13:11:53.001Z,12.9
2019-05-15T13:12:57.091Z,12.9
2019-05-15T13:13:39.676Z,12.8
2019-05-15T13:14:30.550Z,12.8
2019-05-15T13:15:28.147Z,12.9
2019-05-15T13:16:19.142Z,12.8
2019-05-15T13:17:10.008Z,12.8
2019-05-15T13:18:00.886Z,12.8
2019-05-15T13:18:51.767Z,12.8
2019-05-15T13:19:42.636Z,12.8
2019-05-15T13:20:33.536Z,12.8
2019-05-15T13:21:24.405Z,12.8
2019-05-15T13:22:18.064Z,12.8
2019-05-15T13:23:10.350Z,12.8
2019-05-15T13:24:01.219Z,12.8
2019-05-15T13:24:52.101Z,12.8
2019-05-15T13:25:43.013Z,12.9
2019-05-15T13:26:33.887Z,12.9
2019-05-15T13:27:24.758Z,12.9
2019-05-15T13:28:18.149Z,12.9
2019-05-15T13:29:09.197Z,12.9
2019-05-15T13:30:00.069Z,12.9
2019-05-15T13:30:50.968Z,12.9
2019-05-15T13:31:41.839Z,12.9
2019-05-15T13:32:32.755Z,12.9
2019-05-15T13:33:23.631Z,12.9
2019-05-15T13:34:14.498Z,12.9
2019-05-15T13:35:05.371Z,12.9
2019-05-15T13:35:58.389Z,12.9
2019-05-15T13:36:49.440Z,12.9
2019-05-15T13:37:40.313Z,12.9
2019-05-15T13:38:31.188Z,12.9
2019-05-15T13:39:22.059Z,12.9
2019-05-15T13:40:12.934Z,12.9
2019-05-15T13:41:03.840Z,12.9
2019-05-15T13:41:54.707Z,12.9
2019-05-15T13:42:48.078Z,12.9
2019-05-15T13:43:39.148Z,12.9
2019-05-15T13:44:30.012Z,12.9
2019-05-15T13:45:20.887Z,12.9
2019-05-15T13:46:11.787Z,12.9
2019-05-15T13:47:02.667Z,12.9
2019-05-15T13:47:53.539Z,12.9
2019-05-15T13:48:44.420Z,12.9
2019-05-15T13:49:35.317Z,12.9
2019-05-15T13:50:28.069Z,12.9
2019-05-15T13:51:19.333Z,12.9
2019-05-15T13:52:10.206Z,12.9
2019-05-15T13:53:01.086Z,12.9
2019-05-15T13:53:53.611Z,12.9
2019-05-15T13:54:44.604Z,12.9
2019-05-15T13:55:37.505Z,12.9
2019-05-15T13:56:29.205Z,12.9
2019-05-15T13:57:20.150Z,12.9
2019-05-15T13:58:11.028Z,12.9
2019-05-15T13:59:01.906Z,12.9
2019-05-15T13:59:52.780Z,12.8
2019-05-15T14:00:43.653Z,12.8
2019-05-15T14:01:34.558Z,12.8
2019-05-15T14:02:27.945Z,12.8
2019-05-15T14:03:18.987Z,12.8
2019-05-15T14:04:09.872Z,12.8
2019-05-15T14:05:00.751Z,12.8
2019-05-15T14:05:51.639Z,12.8
2019-05-15T14:06:42.540Z,12.8
2019-05-15T14:07:45.866Z,12.8
2019-05-15T14:08:29.234Z,12.8
2019-05-15T14:09:20.100Z,12.8
2019-05-15T14:10:10.973Z,12.8
2019-05-15T14:11:01.841Z,12.8
2019-05-15T14:11:52.740Z,12.8
2019-05-15T14:12:43.609Z,12.8
2019-05-15T14:13:34.484Z,12.8
2019-05-15T14:14:25.361Z,12.8
2019-05-15T14:15:16.277Z,12.8
2019-05-15T14:16:09.396Z,12.8
2019-05-15T14:17:00.578Z,12.8
2019-05-15T14:17:52.504Z,12.8
2019-05-15T14:18:43.382Z,12.8
2019-05-15T14:19:34.248Z,12.8
2019-05-15T14:20:25.118Z,12.8